Terminal Aerodrome Forecast
Issued by NWS

Home | Current Version | Previous Version | Graphics & Text | Print | Product List | Glossary Off
Versions: 1 2 3 4 5 6 7 8 9 10 11 12 13 14 15

000
FTUS43 KIWX 231700 RRA
TAFSBN
TAF
KSBN 231741Z 2318/2418 16008KT P6SM BKN015
     FM232200 14010KT 5SM -RA BR OVC008
     FM240100 15012KT 3SM RA BR OVC006 WS020/17045KT
      TEMPO 2401/2405 2SM +RA BR OVC004
     FM240600 20013KT 5SM -RA BR OVC006=

USA.gov is the U.S. government's official web portal to all federal, state and local government web resources and services.